createdAt,value
2018-06-28T00:02:02.518Z,72.20
2018-06-28T00:04:38.536Z,73.00
2018-06-28T00:07:15.122Z,72.90
2018-06-28T00:09:53.331Z,73.20
2018-06-28T00:12:29.920Z,73.80
2018-06-28T00:15:07.702Z,73.50
2018-06-28T00:17:45.161Z,74.50
2018-06-28T00:20:22.765Z,74.40
2018-06-28T00:22:59.403Z,74.70
2018-06-28T00:25:36.963Z,74.70
2018-06-28T00:28:13.598Z,74.90
2018-06-28T00:30:49.974Z,75.50
2018-06-28T00:33:26.230Z,74.90
2018-06-28T00:36:02.626Z,75.10
2018-06-28T00:38:38.784Z,75.00
2018-06-28T00:41:15.363Z,75.60
2018-06-28T00:43:53.842Z,75.50
2018-06-28T00:46:31.382Z,75.50
2018-06-28T00:49:07.554Z,76.00
2018-06-28T00:51:45.320Z,76.40
2018-06-28T00:54:21.141Z,76.60
2018-06-28T00:56:58.552Z,76.90
2018-06-28T00:59:36.027Z,76.80
2018-06-28T01:02:14.986Z,77.40
2018-06-28T01:04:51.388Z,77.90
2018-06-28T01:07:28.960Z,78.10
2018-06-28T01:10:05.972Z,77.90
2018-06-28T01:12:42.757Z,77.90
2018-06-28T01:15:18.662Z,78.10
2018-06-28T01:17:54.758Z,78.40
2018-06-28T01:20:30.783Z,78.10
2018-06-28T01:23:08.778Z,78.10
2018-06-28T01:25:45.944Z,78.20
2018-06-28T01:28:23.006Z,78.20
2018-06-28T01:31:00.418Z,79.40
2018-06-28T01:33:36.387Z,78.40
2018-06-28T01:36:14.630Z,78.80
2018-06-28T01:38:50.859Z,78.80
2018-06-28T01:43:45.734Z,78.90
2018-06-28T01:46:23.450Z,79.30
2018-06-28T01:48:59.844Z,79.40
2018-06-28T01:51:37.685Z,79.20
2018-06-28T01:54:13.886Z,80.00
2018-06-28T01:56:51.336Z,80.00
2018-06-28T01:59:29.200Z,79.80
2018-06-28T02:02:06.872Z,80.00
2018-06-28T02:04:43.338Z,80.20
2018-06-28T02:07:20.794Z,80.60
2018-06-28T02:09:58.091Z,80.70
2018-06-28T02:12:34.465Z,80.70
2018-06-28T02:15:11.743Z,80.80
2018-06-28T02:17:48.338Z,80.50
2018-06-28T02:20:24.277Z,80.80
2018-06-28T02:23:01.058Z,80.90
2018-06-28T02:25:37.983Z,81.20
2018-06-28T02:28:14.414Z,81.30
2018-06-28T02:30:50.721Z,81.40
2018-06-28T02:33:27.785Z,81.50
2018-06-28T02:36:04.531Z,81.30
2018-06-28T02:38:42.685Z,81.80
2018-06-28T02:41:18.540Z,81.60
2018-06-28T02:43:54.538Z,81.70
2018-06-28T02:46:30.724Z,81.90
2018-06-28T02:49:07.337Z,82.10
2018-06-28T02:51:44.785Z,82.10
2018-06-28T02:54:23.098Z,82.10
2018-06-28T02:56:59.709Z,81.60
2018-06-28T02:59:36.274Z,81.10
2018-06-28T03:02:13.290Z,81.60
2018-06-28T03:04:50.899Z,81.90
2018-06-28T03:07:26.806Z,81.10
2018-06-28T03:10:03.762Z,81.20
2018-06-28T03:12:40.553Z,81.60
2018-06-28T03:15:17.001Z,81.70
2018-06-28T03:17:55.114Z,81.60
2018-06-28T03:20:31.926Z,82.00
2018-06-28T03:23:08.314Z,82.10
2018-06-28T03:25:44.622Z,82.50
2018-06-28T03:28:21.157Z,82.30
2018-06-28T03:30:57.035Z,82.30
2018-06-28T03:33:33.030Z,82.40
2018-06-28T03:36:10.809Z,82.10
2018-06-28T03:38:47.353Z,82.30
2018-06-28T03:41:24.653Z,82.20
2018-06-28T03:44:01.516Z,82.50
2018-06-28T03:46:38.968Z,82.30
2018-06-28T03:49:16.510Z,82.40
2018-06-28T03:51:53.904Z,82.20
2018-06-28T03:54:32.058Z,82.00
2018-06-28T03:57:09.927Z,82.10
2018-06-28T03:59:47.013Z,81.90
2018-06-28T04:02:23.583Z,81.80
2018-06-28T04:05:01.569Z,81.70
2018-06-28T04:07:39.363Z,81.20
2018-06-28T04:10:16.943Z,80.80
2018-06-28T04:12:54.251Z,80.90
2018-06-28T04:15:30.553Z,80.80
2018-06-28T04:18:07.710Z,81.10
2018-06-28T04:20:45.450Z,80.30
2018-06-28T04:23:21.861Z,80.20
2018-06-28T04:25:59.091Z,80.70
2018-06-28T04:28:36.905Z,80.10
2018-06-28T04:31:14.625Z,80.40
2018-06-28T04:33:52.965Z,80.00
2018-06-28T04:36:30.742Z,80.00
2018-06-28T04:39:10.139Z,79.60
2018-06-28T04:41:46.263Z,79.80
2018-06-28T04:44:22.619Z,80.10
2018-06-28T04:46:59.358Z,81.00
2018-06-28T04:49:36.637Z,80.90
2018-06-28T04:52:14.817Z,81.10
2018-06-28T04:54:50.856Z,80.80
2018-06-28T04:57:28.468Z,81.20
2018-06-28T05:00:05.745Z,80.90
2018-06-28T05:02:42.428Z,81.10
2018-06-28T05:05:19.052Z,80.80
2018-06-28T05:07:55.534Z,80.60
2018-06-28T05:10:32.645Z,80.60
2018-06-28T05:13:09.201Z,80.80
2018-06-28T05:15:47.137Z,80.20
2018-06-28T05:18:24.525Z,79.80
2018-06-28T05:21:01.951Z,79.50
2018-06-28T05:23:40.082Z,80.00
2018-06-28T05:26:16.502Z,80.20
2018-06-28T05:28:52.824Z,79.50
2018-06-28T05:31:30.370Z,80.20
2018-06-28T05:34:07.732Z,78.50
2018-06-28T05:36:45.026Z,79.70
2018-06-28T05:39:21.674Z,80.00
2018-06-28T05:41:59.573Z,80.00
2018-06-28T05:44:35.299Z,80.60
2018-06-28T05:47:12.356Z,79.40
2018-06-28T05:49:49.605Z,78.90
2018-06-28T05:52:26.845Z,79.30
2018-06-28T05:55:02.944Z,78.60
2018-06-28T05:57:40.675Z,78.30
2018-06-28T06:00:18.934Z,76.80
2018-06-28T06:02:56.013Z,76.90
2018-06-28T06:05:33.874Z,76.20
2018-06-28T06:08:10.456Z,77.00
2018-06-28T06:10:47.782Z,77.40
2018-06-28T06:13:25.440Z,77.10
2018-06-28T06:16:02.611Z,77.50
2018-06-28T06:18:40.370Z,76.50
2018-06-28T06:21:17.045Z,76.40
2018-06-28T06:23:54.750Z,76.50
2018-06-28T06:26:31.765Z,77.00
2018-06-28T06:29:09.798Z,77.50
2018-06-28T06:31:47.537Z,77.50
2018-06-28T06:34:23.565Z,77.80
2018-06-28T06:37:00.440Z,77.80
2018-06-28T06:39:37.043Z,77.00
2018-06-28T06:42:13.760Z,76.60
2018-06-28T06:44:52.239Z,76.00
2018-06-28T06:47:30.362Z,74.70
2018-06-28T06:50:08.757Z,74.70
2018-06-28T06:52:45.051Z,74.20
2018-06-28T06:55:22.282Z,74.10
2018-06-28T06:57:59.673Z,73.20
2018-06-28T07:00:36.705Z,72.50
2018-06-28T07:03:14.961Z,71.30
2018-06-28T07:05:51.778Z,70.40
2018-06-28T07:08:28.325Z,69.50
2018-06-28T07:11:05.070Z,69.70
2018-06-28T07:13:41.806Z,69.70
2018-06-28T07:16:18.252Z,69.60
2018-06-28T07:18:54.832Z,68.60
2018-06-28T07:21:31.621Z,69.60
2018-06-28T07:24:09.488Z,69.70
2018-06-28T07:26:48.007Z,68.70
2018-06-28T07:29:24.989Z,68.00
2018-06-28T07:32:03.230Z,66.60
2018-06-28T07:34:41.440Z,65.80
2018-06-28T07:37:19.274Z,65.00
2018-06-28T07:39:56.246Z,65.80
2018-06-28T07:42:32.841Z,65.10
2018-06-28T07:45:09.941Z,63.90
2018-06-28T07:47:47.488Z,64.10
2018-06-28T07:50:25.701Z,64.10
2018-06-28T07:53:02.547Z,63.00
2018-06-28T07:58:17.921Z,59.80
2018-06-28T08:00:55.878Z,59.20
2018-06-28T08:03:33.015Z,59.20
2018-06-28T08:06:09.100Z,57.50
2018-06-28T08:08:45.792Z,56.40
2018-06-28T08:11:23.829Z,56.30
2018-06-28T08:14:01.256Z,54.90
2018-06-28T08:16:39.102Z,56.00
2018-06-28T08:19:17.954Z,54.60
2018-06-28T08:21:54.626Z,53.70
2018-06-28T08:24:30.990Z,52.40
2018-06-28T08:27:07.787Z,51.00
2018-06-28T08:29:45.090Z,50.00
2018-06-28T08:32:23.272Z,50.10
2018-06-28T08:35:00.209Z,49.70
2018-06-28T08:37:37.719Z,48.90
2018-06-28T08:40:16.245Z,47.90
2018-06-28T08:42:53.364Z,45.40
2018-06-28T08:45:31.158Z,43.80
2018-06-28T08:48:07.759Z,43.40
2018-06-28T08:50:44.579Z,44.20
2018-06-28T08:53:21.806Z,44.60
2018-06-28T08:55:58.449Z,46.20
2018-06-28T08:58:35.730Z,47.10
2018-06-28T09:01:13.756Z,47.10
2018-06-28T09:03:50.043Z,47.10
2018-06-28T09:06:27.154Z,47.20
2018-06-28T09:09:08.068Z,48.10
2018-06-28T09:11:45.928Z,47.70
2018-06-28T09:14:22.286Z,47.00
2018-06-28T09:16:58.906Z,47.20
2018-06-28T09:19:35.713Z,46.60
2018-06-28T09:22:11.851Z,46.50
2018-06-28T09:24:48.470Z,47.00
2018-06-28T09:27:25.470Z,49.10
2018-06-28T09:30:03.721Z,49.20
2018-06-28T09:32:40.478Z,50.00
2018-06-28T09:35:18.379Z,50.60
2018-06-28T09:37:55.321Z,50.40
2018-06-28T09:40:33.744Z,50.70
2018-06-28T09:43:09.932Z,50.10
2018-06-28T09:45:48.202Z,51.20
2018-06-28T09:48:26.071Z,52.20
2018-06-28T09:51:02.791Z,52.40
2018-06-28T09:53:40.674Z,53.10
2018-06-28T09:56:17.737Z,54.00
2018-06-28T09:58:55.845Z,54.80
2018-06-28T10:01:33.490Z,55.00
2018-06-28T10:04:11.653Z,55.10
2018-06-28T10:06:47.885Z,55.40
2018-06-28T10:09:25.618Z,55.80
2018-06-28T10:12:02.292Z,56.30
2018-06-28T10:14:38.293Z,56.40
2018-06-28T10:17:15.443Z,56.80
2018-06-28T10:19:53.509Z,56.40
2018-06-28T10:22:31.306Z,56.50
2018-06-28T10:25:07.691Z,56.80
2018-06-28T10:27:43.822Z,56.60
2018-06-28T10:30:20.809Z,56.90
2018-06-28T10:32:57.468Z,56.60
2018-06-28T10:35:34.727Z,56.60
2018-06-28T10:38:11.438Z,56.20
2018-06-28T10:40:48.109Z,56.10
2018-06-28T10:43:25.354Z,56.00
2018-06-28T10:46:03.868Z,55.70
2018-06-28T10:48:40.670Z,56.10
2018-06-28T10:51:17.449Z,56.50
2018-06-28T10:53:54.434Z,56.50
2018-06-28T10:56:30.702Z,57.00
2018-06-28T10:59:08.500Z,56.80
2018-06-28T11:01:45.414Z,56.80
2018-06-28T11:04:21.733Z,56.60
2018-06-28T11:06:58.403Z,56.60
2018-06-28T11:09:34.175Z,56.60
2018-06-28T11:12:10.398Z,56.50
2018-06-28T11:14:46.665Z,56.70
2018-06-28T11:17:24.478Z,56.50
2018-06-28T11:20:01.312Z,56.80
2018-06-28T11:22:37.009Z,56.50
2018-06-28T11:25:14.638Z,57.00
2018-06-28T11:27:52.443Z,57.10
2018-06-28T11:30:28.854Z,57.90
2018-06-28T11:33:06.545Z,57.00
2018-06-28T11:35:44.572Z,56.70
2018-06-28T11:38:21.825Z,56.00
2018-06-28T11:40:58.018Z,55.50
2018-06-28T11:43:34.877Z,54.60
2018-06-28T11:46:10.724Z,54.90
2018-06-28T11:48:47.660Z,54.40
2018-06-28T11:51:24.750Z,53.90
2018-06-28T11:54:01.090Z,53.80
2018-06-28T11:56:37.754Z,53.70
2018-06-28T11:59:14.187Z,53.50
2018-06-28T12:01:50.780Z,53.50
2018-06-28T12:04:26.603Z,53.50
2018-06-28T12:07:02.332Z,53.90
2018-06-28T12:09:38.933Z,54.00
2018-06-28T12:12:17.289Z,53.90
2018-06-28T12:14:54.924Z,53.60
2018-06-28T12:17:30.985Z,52.80
2018-06-28T12:20:08.378Z,52.30
2018-06-28T12:22:44.893Z,52.00
2018-06-28T12:25:21.161Z,52.40
2018-06-28T12:27:57.961Z,52.30
2018-06-28T12:30:33.889Z,52.40
2018-06-28T12:33:10.291Z,52.30
2018-06-28T12:35:46.395Z,52.60
2018-06-28T12:38:24.894Z,52.60
2018-06-28T12:41:02.037Z,52.30
2018-06-28T12:43:39.979Z,51.30
2018-06-28T12:46:17.141Z,51.70
2018-06-28T12:48:53.971Z,52.30
2018-06-28T12:51:48.274Z,52.90
2018-06-28T12:54:24.344Z,52.10
2018-06-28T12:57:00.962Z,51.30
2018-06-28T12:59:38.558Z,51.40
2018-06-28T13:02:15.762Z,52.60
2018-06-28T13:04:52.310Z,53.90
2018-06-28T13:07:29.422Z,54.60
2018-06-28T13:10:08.069Z,55.50
2018-06-28T13:12:45.600Z,55.90
2018-06-28T13:15:22.581Z,55.80
2018-06-28T13:17:59.283Z,55.60
2018-06-28T13:20:36.477Z,55.60
2018-06-28T13:23:13.187Z,55.10
2018-06-28T13:25:51.428Z,55.30
2018-06-28T13:28:29.839Z,55.20
2018-06-28T13:31:06.188Z,55.60
2018-06-28T13:33:43.928Z,58.10
2018-06-28T13:36:21.512Z,56.90
2018-06-28T13:38:59.007Z,56.50
2018-06-28T13:41:36.798Z,56.80
2018-06-28T13:44:13.005Z,56.20
2018-06-28T13:46:49.678Z,56.00
2018-06-28T13:49:26.396Z,55.90
2018-06-28T13:52:02.726Z,55.80
2018-06-28T13:54:39.065Z,55.80
2018-06-28T13:57:15.340Z,56.00
2018-06-28T13:59:52.981Z,55.80
2018-06-28T14:02:29.978Z,55.40
2018-06-28T14:05:06.723Z,55.20
2018-06-28T14:07:43.323Z,55.30
2018-06-28T14:10:19.514Z,55.10
2018-06-28T14:12:56.747Z,55.90
2018-06-28T14:15:34.607Z,56.10
2018-06-28T14:18:10.809Z,56.20
2018-06-28T14:20:47.417Z,55.40
2018-06-28T14:23:25.333Z,54.90
2018-06-28T14:26:01.699Z,54.80
2018-06-28T14:28:38.092Z,54.40
2018-06-28T14:31:15.322Z,55.00
2018-06-28T14:33:54.337Z,54.70
2018-06-28T14:36:30.423Z,54.60
2018-06-28T14:39:09.491Z,55.50
2018-06-28T14:41:47.652Z,54.80
2018-06-28T14:44:24.549Z,54.90
2018-06-28T14:47:00.603Z,55.00
2018-06-28T14:49:37.594Z,54.60
2018-06-28T14:52:13.793Z,55.10
2018-06-28T14:54:51.494Z,55.30
2018-06-28T14:57:28.586Z,55.90
2018-06-28T15:00:05.579Z,55.50
2018-06-28T15:02:42.338Z,56.00
2018-06-28T15:05:20.290Z,56.20
2018-06-28T15:10:34.963Z,55.30
2018-06-28T15:13:12.757Z,55.80
2018-06-28T15:15:50.335Z,56.40
2018-06-28T15:18:27.893Z,56.90
2018-06-28T15:21:04.792Z,56.90
2018-06-28T15:23:42.811Z,59.70
2018-06-28T15:26:19.489Z,61.10
2018-06-28T15:28:57.513Z,63.30
2018-06-28T15:31:35.974Z,63.60
2018-06-28T15:34:12.211Z,64.20
2018-06-28T15:36:48.625Z,67.00
2018-06-28T15:39:25.130Z,65.40
2018-06-28T15:42:03.951Z,62.50
2018-06-28T15:44:40.959Z,62.90
2018-06-28T15:47:19.369Z,65.50
2018-06-28T15:49:56.066Z,69.00
2018-06-28T15:52:33.197Z,68.20
2018-06-28T15:55:11.890Z,69.20
2018-06-28T15:57:47.894Z,69.10
2018-06-28T16:00:26.112Z,68.50
2018-06-28T16:03:02.888Z,72.90
2018-06-28T16:05:38.921Z,71.40
2018-06-28T16:08:16.805Z,71.50
2018-06-28T16:10:54.657Z,72.90
2018-06-28T16:13:31.793Z,75.20
2018-06-28T16:16:09.209Z,71.50
2018-06-28T16:18:49.366Z,75.80
2018-06-28T16:21:28.162Z,75.60
2018-06-28T16:24:05.124Z,77.00
2018-06-28T16:26:42.361Z,72.90
2018-06-28T16:29:18.078Z,72.80
2018-06-28T16:31:54.398Z,74.40
2018-06-28T16:34:32.754Z,71.90
2018-06-28T16:37:08.799Z,73.10
2018-06-28T16:39:45.389Z,69.70
2018-06-28T16:42:21.743Z,68.80
2018-06-28T16:45:01.148Z,67.50
2018-06-28T16:47:37.777Z,68.00
2018-06-28T16:50:15.790Z,67.90
2018-06-28T16:52:52.486Z,67.60
2018-06-28T16:55:29.706Z,67.80
2018-06-28T16:58:05.888Z,68.40
2018-06-28T17:00:42.105Z,70.70
2018-06-28T17:03:18.501Z,70.60
2018-06-28T17:05:54.873Z,69.00
2018-06-28T17:08:31.269Z,68.30
2018-06-28T17:11:09.166Z,69.30
2018-06-28T17:13:45.705Z,70.00
2018-06-28T17:16:22.784Z,70.10
2018-06-28T17:18:59.605Z,67.30
2018-06-28T17:21:36.231Z,67.20
2018-06-28T17:24:13.726Z,66.50
2018-06-28T17:26:49.806Z,66.90
2018-06-28T17:29:26.400Z,65.70
2018-06-28T17:32:03.838Z,65.30
2018-06-28T17:34:41.578Z,65.10
2018-06-28T17:37:17.797Z,65.60
2018-06-28T17:39:56.566Z,66.00
2018-06-28T17:42:33.230Z,66.80
2018-06-28T17:45:10.584Z,65.60
2018-06-28T17:47:47.105Z,64.50
2018-06-28T17:50:23.995Z,64.70
2018-06-28T17:53:00.026Z,65.50
2018-06-28T17:55:35.789Z,66.70
2018-06-28T17:58:11.964Z,66.10
2018-06-28T18:00:49.677Z,66.50
2018-06-28T18:03:25.974Z,68.10
2018-06-28T18:06:02.492Z,67.90
2018-06-28T18:08:38.868Z,68.20
2018-06-28T18:11:16.270Z,69.10
2018-06-28T18:13:52.766Z,68.40
2018-06-28T18:16:29.513Z,68.10
2018-06-28T18:19:07.758Z,67.70
2018-06-28T18:21:45.020Z,68.20
2018-06-28T18:24:21.898Z,69.60
2018-06-28T18:26:58.885Z,70.50
2018-06-28T18:29:34.976Z,70.80
2018-06-28T18:34:48.637Z,71.20
2018-06-28T18:37:26.523Z,71.80
2018-06-28T18:42:41.822Z,72.70
2018-06-28T18:45:20.512Z,73.40
2018-06-28T18:47:57.269Z,73.80
2018-06-28T18:50:36.530Z,74.30
2018-06-28T18:53:13.330Z,74.30
2018-06-28T18:55:50.148Z,74.30
2018-06-28T18:58:27.292Z,74.30
2018-06-28T19:01:03.342Z,74.20
2018-06-28T19:03:41.358Z,74.60
2018-06-28T19:06:18.530Z,73.80
2018-06-28T19:08:56.346Z,74.50
2018-06-28T19:11:34.443Z,75.20
2018-06-28T19:16:23.366Z,75.00
2018-06-28T19:18:59.977Z,74.40
2018-06-28T19:21:42.037Z,75.10
2018-06-28T19:24:19.999Z,75.30
2018-06-28T19:26:56.367Z,74.70
2018-06-28T19:29:38.339Z,74.50
2018-06-28T19:32:22.416Z,74.30
2018-06-28T19:35:01.624Z,74.40
2018-06-28T19:37:43.739Z,75.70
2018-06-28T19:40:27.949Z,74.80
2018-06-28T19:43:09.010Z,75.30
2018-06-28T19:45:47.032Z,76.40
2018-06-28T19:48:25.945Z,76.10
2018-06-28T19:51:08.281Z,76.20
2018-06-28T19:53:44.970Z,76.70
2018-06-28T19:56:21.504Z,76.60
2018-06-28T19:58:57.291Z,76.10
2018-06-28T20:01:39.078Z,76.70
2018-06-28T20:04:14.953Z,75.80
2018-06-28T20:06:53.404Z,76.00
2018-06-28T20:09:29.602Z,75.90
2018-06-28T20:12:08.442Z,76.00
2018-06-28T20:14:50.149Z,74.90
2018-06-28T20:17:31.999Z,74.40
2018-06-28T20:20:25.055Z,73.50
2018-06-28T20:23:02.117Z,72.60
2018-06-28T20:25:39.073Z,72.00
2018-06-28T20:28:21.746Z,73.00
2018-06-28T20:31:03.230Z,71.40
2018-06-28T20:33:45.534Z,72.10
2018-06-28T20:36:22.517Z,70.50
2018-06-28T20:38:59.863Z,70.30
2018-06-28T20:41:36.987Z,70.50
2018-06-28T20:44:13.410Z,70.00
2018-06-28T20:46:50.301Z,69.50
2018-06-28T20:49:27.932Z,70.30
2018-06-28T20:52:04.876Z,70.10
2018-06-28T20:54:41.937Z,71.10
2018-06-28T20:57:17.866Z,71.10
2018-06-28T20:59:54.169Z,71.40
2018-06-28T21:02:30.319Z,71.80
2018-06-28T21:05:07.460Z,72.20
2018-06-28T21:07:43.797Z,73.40
2018-06-28T21:10:22.268Z,73.70
2018-06-28T21:12:58.974Z,73.30
2018-06-28T21:15:35.002Z,74.40
2018-06-28T21:18:12.638Z,72.40
2018-06-28T21:20:48.614Z,74.70
2018-06-28T21:23:26.180Z,74.40
2018-06-28T21:26:02.882Z,74.00
2018-06-28T21:28:39.878Z,74.00
2018-06-28T21:31:16.741Z,74.40
2018-06-28T21:33:53.921Z,74.80
2018-06-28T21:36:30.517Z,74.60
2018-06-28T21:39:11.131Z,74.50
2018-06-28T21:41:47.510Z,74.70
2018-06-28T21:44:23.541Z,74.70
2018-06-28T21:47:00.590Z,75.50
2018-06-28T21:49:37.064Z,75.00
2018-06-28T21:52:13.703Z,76.30
2018-06-28T21:54:51.005Z,76.40
2018-06-28T21:57:29.027Z,75.40
2018-06-28T22:00:09.226Z,75.40
2018-06-28T22:02:46.082Z,75.70
2018-06-28T22:05:22.645Z,75.20
2018-06-28T22:07:58.811Z,74.00
2018-06-28T22:10:35.757Z,73.40
2018-06-28T22:13:13.223Z,74.00
2018-06-28T22:15:49.078Z,72.80
2018-06-28T22:18:25.781Z,72.80
2018-06-28T22:21:02.259Z,73.50
2018-06-28T22:23:38.357Z,72.30
2018-06-28T22:26:14.889Z,71.90
2018-06-28T22:28:51.571Z,71.30
2018-06-28T22:31:28.867Z,71.70
2018-06-28T22:34:06.919Z,71.00
2018-06-28T22:36:43.777Z,71.10
2018-06-28T22:39:20.973Z,71.20
2018-06-28T22:41:57.318Z,71.10
2018-06-28T22:44:34.074Z,71.10
2018-06-28T22:47:12.026Z,71.70
2018-06-28T22:49:48.301Z,71.60
2018-06-28T22:52:24.349Z,72.30
2018-06-28T22:55:01.705Z,72.60
2018-06-28T22:57:38.319Z,72.40
2018-06-28T23:00:23.377Z,72.30
2018-06-28T23:03:00.027Z,72.40
2018-06-28T23:05:36.331Z,72.40
2018-06-28T23:08:12.709Z,73.30
2018-06-28T23:10:49.679Z,72.70
2018-06-28T23:13:26.742Z,72.60
2018-06-28T23:16:04.931Z,73.50
2018-06-28T23:18:41.231Z,73.40
2018-06-28T23:21:19.140Z,72.60
2018-06-28T23:23:57.737Z,72.30
2018-06-28T23:26:34.547Z,72.20
2018-06-28T23:29:10.382Z,72.00
2018-06-28T23:31:46.823Z,72.10
2018-06-28T23:34:23.161Z,72.10
2018-06-28T23:36:59.614Z,72.50
2018-06-28T23:39:36.603Z,72.80
2018-06-28T23:42:13.726Z,72.70
2018-06-28T23:44:49.569Z,72.80
2018-06-28T23:47:28.031Z,73.20
2018-06-28T23:50:06.133Z,72.20
2018-06-28T23:52:42.678Z,72.00
2018-06-28T23:55:18.808Z,71.40
2018-06-28T23:57:56.553Z,71.10
